Royston, Texas
Current Conditions -  °F | °C
As of 9:55 AM on Friday 31 Oct 2014 (Local Time) from KSWW Reporting Station
Clear Clear  
Wind Chill: 55°   Ceiling: Unl
Heat Index: 55°   Visibility: 10mi
Dew Point: 35°   Wind: 13mph
Humidity: 47%   Direction: 30°NNE
Pressure: 30.44"   Gusts: 18mph
Location:  32.6787°N, 100.492°W
Report Text: KSWW 311455Z AUTO 03011G16KT 10SM CLR 13/02 A3044 RMK AO2 T01270016
Loading
Personal Weather Stations






























Interactive Weather Map
Tropical Storm Tracking
New forecast layout! Learn more

10-Day Weather Forecast

Advertisements
Track Severe Weather on mobile